createdAt,value
2018-10-06T00:01:16.352Z,21.27
2018-10-06T00:03:45.822Z,20.17
2018-10-06T00:06:15.218Z,19.57
2018-10-06T00:08:44.527Z,19.13
2018-10-06T00:11:13.868Z,19.53
2018-10-06T00:13:43.102Z,20.07
2018-10-06T00:16:12.301Z,19.20
2018-10-06T00:18:41.526Z,20.10
2018-10-06T00:21:10.948Z,19.07
2018-10-06T00:23:41.232Z,17.20
2018-10-06T00:26:10.488Z,16.53
2018-10-06T00:28:39.768Z,18.03
2018-10-06T00:31:09.771Z,17.67
2018-10-06T00:33:38.976Z,18.37
2018-10-06T00:36:08.392Z,18.87
2018-10-06T00:38:37.618Z,17.40
2018-10-06T00:41:07.150Z,17.83
2018-10-06T00:43:36.521Z,20.43
2018-10-06T00:46:05.767Z,23.23
2018-10-06T00:48:35.198Z,26.67
2018-10-06T00:51:04.401Z,25.43
2018-10-06T00:53:34.469Z,28.40
2018-10-06T00:56:03.680Z,27.87
2018-10-06T00:58:33.098Z,26.83
2018-10-06T01:01:02.315Z,27.97
2018-10-06T01:03:31.510Z,26.23
2018-10-06T01:06:01.037Z,25.90
2018-10-06T01:08:30.496Z,28.83
2018-10-06T01:10:59.764Z,30.33
2018-10-06T01:13:29.050Z,30.60
2018-10-06T01:15:58.264Z,29.43
2018-10-06T01:18:27.463Z,29.00
2018-10-06T01:20:56.804Z,28.60
2018-10-06T01:23:26.595Z,28.60
2018-10-06T01:25:56.028Z,26.70
2018-10-06T01:28:25.258Z,25.40
2018-10-06T01:30:54.490Z,26.27
2018-10-06T01:33:24.689Z,25.13
2018-10-06T01:35:53.934Z,23.67
2018-10-06T01:38:23.253Z,23.03
2018-10-06T01:40:53.434Z,23.33
2018-10-06T01:43:22.789Z,24.30
2018-10-06T01:45:52.023Z,24.57
2018-10-06T01:48:21.382Z,24.50
2018-10-06T01:50:51.246Z,24.57
2018-10-06T01:53:20.453Z,28.27
2018-10-06T01:55:49.656Z,26.87
2018-10-06T01:58:19.144Z,26.50
2018-10-06T02:00:48.392Z,25.10
2018-10-06T02:03:17.788Z,27.63
2018-10-06T02:05:47.068Z,28.63
2018-10-06T02:08:17.009Z,26.83
2018-10-06T02:10:46.367Z,27.83
2018-10-06T02:13:15.612Z,27.57
2018-10-06T02:15:44.831Z,26.53
2018-10-06T02:18:14.213Z,21.87
2018-10-06T02:20:43.488Z,23.97
2018-10-06T02:23:12.748Z,24.43
2018-10-06T02:25:41.950Z,29.00
2018-10-06T02:28:11.167Z,26.83
2018-10-06T02:30:40.416Z,27.23
2018-10-06T02:33:09.635Z,31.33
2018-10-06T02:35:38.881Z,32.13
2018-10-06T02:38:08.120Z,33.07
2018-10-06T02:40:37.326Z,34.73
2018-10-06T02:43:06.703Z,35.67
2018-10-06T02:45:36.048Z,36.50
2018-10-06T02:48:05.601Z,32.73
2018-10-06T02:50:34.809Z,23.07
2018-10-06T02:53:04.020Z,19.80
2018-10-06T02:55:33.989Z,23.23
2018-10-06T02:58:03.236Z,20.47
2018-10-06T03:00:32.458Z,18.53
2018-10-06T03:03:01.807Z,17.83
2018-10-06T03:05:31.232Z,11.30
2018-10-06T03:08:00.650Z,11.57
2018-10-06T03:10:29.864Z,15.60
2018-10-06T03:12:59.221Z,12.40
2018-10-06T03:15:28.452Z,15.87
2018-10-06T03:17:58.660Z,14.73
2018-10-06T03:20:27.913Z,12.33
2018-10-06T03:22:57.370Z,13.30
2018-10-06T03:25:26.571Z,15.10
2018-10-06T03:27:55.964Z,18.10
2018-10-06T03:30:26.027Z,16.70
2018-10-06T03:32:55.264Z,14.13
2018-10-06T03:35:24.471Z,15.27
2018-10-06T03:37:53.875Z,13.23
2018-10-06T03:40:23.196Z,12.97
2018-10-06T03:42:52.403Z,12.97
2018-10-06T03:45:21.644Z,12.63
2018-10-06T03:47:51.601Z,14.13
2018-10-06T03:50:20.887Z,23.63
2018-10-06T03:52:50.119Z,16.10
2018-10-06T03:55:19.387Z,15.77
2018-10-06T03:57:48.605Z,19.53
2018-10-06T04:00:17.993Z,22.03
2018-10-06T04:02:47.897Z,24.37
2018-10-06T04:05:17.612Z,24.80
2018-10-06T04:07:47.828Z,19.43
2018-10-06T04:10:18.100Z,14.13
2018-10-06T04:12:47.348Z,12.70
2018-10-06T04:15:16.604Z,21.43
2018-10-06T04:17:46.027Z,22.73
2018-10-06T04:20:15.364Z,25.40
2018-10-06T04:22:44.576Z,27.50
2018-10-06T04:25:13.772Z,27.57
2018-10-06T04:27:43.066Z,29.33
2018-10-06T04:30:12.368Z,28.43
2018-10-06T04:32:41.799Z,28.70
2018-10-06T04:35:11.039Z,29.20
2018-10-06T04:37:40.264Z,29.63
2018-10-06T04:40:09.323Z,30.70
2018-10-06T04:42:38.661Z,32.00
2018-10-06T04:45:07.968Z,29.47
2018-10-06T04:47:37.720Z,30.07
2018-10-06T04:50:06.985Z,30.97
2018-10-06T04:52:36.181Z,29.30
2018-10-06T04:55:05.429Z,29.90
2018-10-06T04:57:34.880Z,30.30
2018-10-06T05:00:04.189Z,30.83
2018-10-06T05:02:33.416Z,33.53
2018-10-06T05:05:02.657Z,31.73
2018-10-06T05:07:31.983Z,34.17
2018-10-06T05:10:01.305Z,33.50
2018-10-06T05:12:30.604Z,37.27
2018-10-06T05:14:59.853Z,35.00
2018-10-06T05:17:29.473Z,34.70
2018-10-06T05:19:59.273Z,36.87
2018-10-06T05:22:28.491Z,37.77
2018-10-06T05:24:57.949Z,38.83
2018-10-06T05:27:28.077Z,38.03
2018-10-06T05:29:57.421Z,38.40
2018-10-06T05:32:27.383Z,39.33
2018-10-06T05:34:56.604Z,39.97
2018-10-06T05:37:26.085Z,43.10
2018-10-06T05:39:55.301Z,43.43
2018-10-06T05:42:24.548Z,43.57
2018-10-06T05:44:53.760Z,42.97
2018-10-06T05:47:23.097Z,41.80
2018-10-06T05:49:53.147Z,41.63
2018-10-06T05:52:22.519Z,44.03
2018-10-06T05:54:51.867Z,42.57
2018-10-06T05:57:21.276Z,43.33
2018-10-06T05:59:50.645Z,40.23
2018-10-06T06:02:20.638Z,41.20
2018-10-06T06:04:49.896Z,42.13
2018-10-06T06:07:19.636Z,40.77
2018-10-06T06:09:48.908Z,41.40
2018-10-06T06:12:18.360Z,37.93
2018-10-06T06:14:47.873Z,40.33
2018-10-06T06:17:17.259Z,40.80
2018-10-06T06:19:46.504Z,40.27
2018-10-06T06:22:15.871Z,38.53
2018-10-06T06:24:45.644Z,37.07
2018-10-06T06:27:15.048Z,37.13
2018-10-06T06:29:44.331Z,36.30
2018-10-06T06:32:13.913Z,35.43
2018-10-06T06:34:43.056Z,37.50
2018-10-06T06:37:12.287Z,39.63
2018-10-06T06:39:41.639Z,39.67
2018-10-06T06:42:11.693Z,41.63
2018-10-06T06:44:40.908Z,41.07
2018-10-06T06:47:10.115Z,38.80
2018-10-06T06:49:39.461Z,37.50
2018-10-06T06:52:08.676Z,37.30
2018-10-06T06:54:37.916Z,34.50
2018-10-06T06:57:07.850Z,33.37
2018-10-06T06:59:37.606Z,31.70
2018-10-06T07:02:07.144Z,31.83
2018-10-06T07:04:36.336Z,29.33
2018-10-06T07:07:05.607Z,28.70
2018-10-06T07:09:34.983Z,27.10
2018-10-06T07:12:08.820Z,26.30
2018-10-06T07:14:38.048Z,24.67
2018-10-06T07:17:07.652Z,23.43
2018-10-06T07:19:36.881Z,22.80
2018-10-06T07:22:06.156Z,22.40
2018-10-06T07:24:35.522Z,22.30
2018-10-06T07:27:04.797Z,20.83
2018-10-06T07:29:34.021Z,21.03
2018-10-06T07:32:03.410Z,19.90
2018-10-06T07:34:32.627Z,18.40
2018-10-06T07:37:02.566Z,18.03
2018-10-06T07:39:31.888Z,18.03
2018-10-06T07:42:01.128Z,16.80
2018-10-06T07:44:30.440Z,18.03
2018-10-06T07:46:59.731Z,16.67
2018-10-06T07:49:29.024Z,17.03
2018-10-06T07:51:58.287Z,16.37
2018-10-06T07:54:27.520Z,16.60
2018-10-06T07:56:57.098Z,16.77
2018-10-06T07:59:26.403Z,16.07
2018-10-06T08:01:55.800Z,15.43
2018-10-06T08:04:25.162Z,15.47
2018-10-06T08:06:54.356Z,16.40
2018-10-06T08:09:23.736Z,14.30
2018-10-06T08:11:53.057Z,14.50
2018-10-06T08:14:22.388Z,13.10
2018-10-06T08:16:51.656Z,12.57
2018-10-06T08:19:20.968Z,12.33
2018-10-06T08:21:50.207Z,12.63
2018-10-06T08:24:20.507Z,12.27
2018-10-06T08:26:49.783Z,12.07
2018-10-06T08:29:19.024Z,12.03
2018-10-06T08:31:48.280Z,11.87
2018-10-06T08:34:17.639Z,11.20
2018-10-06T08:36:46.967Z,11.63
2018-10-06T08:39:16.216Z,10.83
2018-10-06T08:41:45.439Z,10.90
2018-10-06T08:44:14.690Z,10.97
2018-10-06T08:46:43.969Z,11.97
2018-10-06T08:49:13.178Z,12.27
2018-10-06T08:51:42.481Z,12.40
2018-10-06T08:54:11.779Z,12.67
2018-10-06T08:56:41.036Z,13.20
2018-10-06T08:59:10.471Z,12.20
2018-10-06T09:01:39.878Z,11.80
2018-10-06T09:04:09.143Z,12.70
2018-10-06T09:06:38.364Z,12.77
2018-10-06T09:09:08.541Z,13.17
2018-10-06T09:11:38.781Z,13.30
2018-10-06T09:14:07.991Z,12.77
2018-10-06T09:16:37.205Z,14.00
2018-10-06T09:19:06.608Z,12.83
2018-10-06T09:21:36.048Z,13.30
2018-10-06T09:24:05.570Z,12.20
2018-10-06T09:26:34.981Z,12.35
2018-10-06T09:29:04.410Z,11.67
2018-10-06T09:31:34.470Z,12.17
2018-10-06T09:34:03.718Z,12.93
2018-10-06T09:36:33.824Z,12.83
2018-10-06T09:39:04.881Z,12.70
2018-10-06T09:41:34.180Z,13.57
2018-10-06T09:44:04.216Z,13.50
2018-10-06T09:46:33.460Z,14.50
2018-10-06T09:49:02.872Z,14.20
2018-10-06T09:51:32.267Z,13.67
2018-10-06T09:54:01.633Z,13.20
2018-10-06T09:56:30.848Z,13.53
2018-10-06T09:59:00.194Z,13.67
2018-10-06T10:01:35.033Z,14.27
2018-10-06T10:04:10.384Z,14.77
2018-10-06T10:06:41.000Z,14.27
2018-10-06T10:09:12.584Z,14.17
2018-10-06T10:11:42.008Z,14.10
2018-10-06T10:14:11.772Z,14.70
2018-10-06T10:16:41.645Z,14.87
2018-10-06T10:19:11.082Z,14.43
2018-10-06T10:21:40.343Z,14.37
2018-10-06T10:24:09.557Z,14.13
2018-10-06T10:26:38.797Z,13.95
2018-10-06T10:29:08.064Z,14.13
2018-10-06T10:31:37.279Z,14.37
2018-10-06T10:34:06.651Z,15.25
2018-10-06T10:36:36.139Z,13.95
2018-10-06T10:39:06.819Z,14.10
2018-10-06T10:41:36.320Z,14.10
2018-10-06T10:44:05.922Z,13.65
2018-10-06T10:46:35.192Z,14.63
2018-10-06T10:49:04.589Z,14.58
2018-10-06T10:51:34.004Z,14.28
2018-10-06T10:54:03.225Z,15.20
2018-10-06T10:56:32.443Z,15.95
2018-10-06T10:59:01.829Z,14.90
2018-10-06T11:01:31.074Z,15.83
2018-10-06T11:04:00.352Z,15.53
2018-10-06T11:06:29.564Z,16.37
2018-10-06T11:08:58.781Z,16.05
2018-10-06T11:11:28.109Z,16.00
2018-10-06T11:13:57.521Z,17.93
2018-10-06T11:16:27.097Z,17.40
2018-10-06T11:18:56.696Z,17.53
2018-10-06T11:21:27.192Z,16.67
2018-10-06T11:23:56.440Z,17.40
2018-10-06T11:26:25.836Z,16.53
2018-10-06T11:28:55.058Z,16.43
2018-10-06T11:31:24.269Z,15.93
2018-10-06T11:33:56.225Z,13.97
2018-10-06T11:36:25.825Z,13.30
2018-10-06T11:38:55.853Z,12.77
2018-10-06T11:41:25.152Z,12.53
2018-10-06T11:43:54.645Z,13.55
2018-10-06T11:46:24.884Z,12.55
2018-10-06T11:48:54.853Z,12.45
2018-10-06T11:51:24.100Z,12.18
2018-10-06T11:53:53.339Z,13.25
2018-10-06T11:56:22.567Z,12.28
2018-10-06T11:58:51.800Z,10.70
2018-10-06T12:01:22.648Z,10.78
2018-10-06T12:03:51.987Z,11.03
2018-10-06T12:06:21.243Z,11.83
2018-10-06T12:08:50.553Z,11.50
2018-10-06T12:11:19.903Z,10.80
2018-10-06T12:13:49.194Z,9.95
2018-10-06T12:16:18.522Z,9.00
2018-10-06T12:18:47.976Z,9.55
2018-10-06T12:21:17.234Z,9.90
2018-10-06T12:23:46.444Z,9.88
2018-10-06T12:26:16.169Z,10.15
2018-10-06T12:28:45.421Z,10.28
2018-10-06T12:31:16.178Z,12.20
2018-10-06T12:33:45.712Z,10.93
2018-10-06T12:36:14.944Z,10.25
2018-10-06T12:38:44.325Z,11.90
2018-10-06T12:41:14.544Z,15.05
2018-10-06T12:43:44.156Z,12.90
2018-10-06T12:46:13.444Z,11.75
2018-10-06T12:48:42.664Z,10.88
2018-10-06T12:51:11.882Z,9.40
2018-10-06T12:53:41.212Z,8.88
2018-10-06T12:56:10.476Z,8.80
2018-10-06T12:58:39.845Z,8.20
2018-10-06T13:01:09.148Z,9.03
2018-10-06T13:03:38.400Z,8.00
2018-10-06T13:06:07.824Z,8.55
2018-10-06T13:08:37.028Z,7.20
2018-10-06T13:11:07.368Z,7.75
2018-10-06T13:13:36.802Z,8.25
2018-10-06T13:16:06.036Z,8.75
2018-10-06T13:18:35.240Z,8.53
2018-10-06T13:21:04.453Z,9.15
2018-10-06T13:23:34.514Z,9.45
2018-10-06T13:26:03.876Z,8.98
2018-10-06T13:28:33.579Z,9.48
2018-10-06T13:31:03.870Z,8.85
2018-10-06T13:33:33.190Z,8.83
2018-10-06T13:36:02.573Z,9.08
2018-10-06T13:38:31.884Z,9.40
2018-10-06T13:41:01.198Z,8.45
2018-10-06T13:43:30.420Z,8.00
2018-10-06T13:45:59.688Z,8.30
2018-10-06T13:48:28.912Z,8.35
2018-10-06T13:50:58.209Z,8.85
2018-10-06T13:53:27.664Z,9.28
2018-10-06T13:55:56.927Z,8.55
2018-10-06T13:58:26.165Z,9.33
2018-10-06T14:00:55.435Z,9.50
2018-10-06T14:03:24.680Z,8.88
2018-10-06T14:05:54.213Z,8.83
2018-10-06T14:08:23.702Z,10.30
2018-10-06T14:10:52.943Z,9.50
2018-10-06T14:13:22.219Z,9.27
2018-10-06T14:15:51.684Z,9.43
2018-10-06T14:18:20.931Z,10.40
2018-10-06T14:20:50.164Z,10.50
2018-10-06T14:23:19.536Z,9.93
2018-10-06T14:25:49.036Z,9.43
2018-10-06T14:28:18.271Z,10.53
2018-10-06T14:30:48.245Z,10.03
2018-10-06T14:33:17.524Z,10.57
2018-10-06T14:35:46.969Z,10.30
2018-10-06T14:38:16.267Z,12.30
2018-10-06T14:40:45.586Z,11.80
2018-10-06T14:43:14.850Z,12.30
2018-10-06T14:45:44.868Z,12.83
2018-10-06T14:48:14.168Z,13.70
2018-10-06T14:50:44.381Z,14.53
2018-10-06T14:53:13.609Z,14.27
2018-10-06T14:55:42.819Z,14.73
2018-10-06T14:58:12.211Z,14.97
2018-10-06T15:00:41.474Z,14.80
2018-10-06T15:03:10.824Z,16.07
2018-10-06T15:05:40.165Z,15.43
2018-10-06T15:08:09.394Z,16.07
2018-10-06T15:10:38.920Z,16.50
2018-10-06T15:13:08.298Z,17.97
2018-10-06T15:15:37.539Z,17.30
2018-10-06T15:18:06.797Z,17.17
2018-10-06T15:20:36.980Z,16.40
2018-10-06T15:23:06.304Z,16.67
2018-10-06T15:25:36.134Z,15.90
2018-10-06T15:28:05.694Z,14.83
2018-10-06T15:30:34.852Z,16.67
2018-10-06T15:33:04.084Z,16.33
2018-10-06T15:35:33.483Z,16.30
2018-10-06T15:38:02.724Z,17.40
2018-10-06T15:40:32.065Z,16.87
2018-10-06T15:43:01.326Z,17.63
2018-10-06T15:45:30.511Z,17.70
2018-10-06T15:47:59.757Z,18.07
2018-10-06T15:50:29.082Z,18.50
2018-10-06T15:52:58.331Z,17.77
2018-10-06T15:55:28.272Z,19.13
2018-10-06T15:57:57.532Z,18.10
2018-10-06T16:00:26.767Z,16.63
2018-10-06T16:02:57.016Z,17.13
2018-10-06T16:05:26.281Z,17.27
2018-10-06T16:07:55.596Z,16.87
2018-10-06T16:10:25.010Z,16.87
2018-10-06T16:12:54.212Z,18.97
2018-10-06T16:15:23.721Z,20.57
2018-10-06T16:17:52.955Z,20.60
2018-10-06T16:20:22.189Z,20.10
2018-10-06T16:22:51.629Z,20.87
2018-10-06T16:25:20.928Z,20.67
2018-10-06T16:27:50.241Z,20.97
2018-10-06T16:30:19.636Z,22.63
2018-10-06T16:32:49.022Z,22.10
2018-10-06T16:35:18.795Z,22.73
2018-10-06T16:37:48.260Z,21.80
2018-10-06T16:40:17.550Z,23.73
2018-10-06T16:42:47.404Z,23.80
2018-10-06T16:45:16.738Z,25.43
2018-10-06T16:47:46.225Z,24.67
2018-10-06T16:50:15.709Z,24.80
2018-10-06T16:52:45.170Z,26.07
2018-10-06T16:55:14.998Z,26.33
2018-10-06T16:57:44.577Z,26.97
2018-10-06T17:00:14.798Z,27.10
2018-10-06T17:02:44.313Z,29.23
2018-10-06T17:05:14.398Z,28.60
2018-10-06T17:07:44.812Z,31.10
2018-10-06T17:10:14.433Z,32.40
2018-10-06T17:12:43.697Z,31.87
2018-10-06T17:15:13.227Z,32.37
2018-10-06T17:17:42.478Z,33.27
2018-10-06T17:20:11.744Z,32.23
2018-10-06T17:22:41.400Z,34.50
2018-10-06T17:25:10.935Z,34.03
2018-10-06T17:27:41.412Z,34.97
2018-10-06T17:30:11.193Z,36.43
2018-10-06T17:32:41.733Z,37.07
2018-10-06T17:35:11.811Z,36.20
2018-10-06T17:37:41.572Z,37.27
2018-10-06T17:40:10.864Z,36.63
2018-10-06T17:42:40.093Z,36.50
2018-10-06T17:45:10.025Z,36.03
2018-10-06T17:47:39.833Z,37.70
2018-10-06T17:50:09.345Z,39.33
2018-10-06T17:52:38.916Z,38.23
2018-10-06T17:55:08.266Z,36.50
2018-10-06T17:57:37.773Z,37.23
2018-10-06T18:00:07.549Z,36.20
2018-10-06T18:02:36.844Z,36.90
2018-10-06T18:05:06.108Z,39.07
2018-10-06T18:07:35.661Z,38.97
2018-10-06T18:10:05.575Z,38.50
2018-10-06T18:12:35.718Z,39.80
2018-10-06T18:15:05.217Z,38.97
2018-10-06T18:17:34.513Z,37.20
2018-10-06T18:20:03.809Z,37.90
2018-10-06T18:22:33.034Z,38.13
2018-10-06T18:25:02.358Z,38.57
2018-10-06T18:27:33.000Z,40.70
2018-10-06T18:30:02.341Z,41.13
2018-10-06T18:32:31.798Z,41.03
2018-10-06T18:35:01.105Z,42.77
2018-10-06T18:37:30.440Z,42.97
2018-10-06T18:39:59.745Z,42.57
2018-10-06T18:42:29.059Z,42.23
2018-10-06T18:44:58.292Z,41.40
2018-10-06T18:47:27.693Z,43.13
2018-10-06T18:49:56.911Z,42.47
2018-10-06T18:52:26.240Z,43.77
2018-10-06T18:54:55.459Z,43.17
2018-10-06T18:57:24.713Z,44.83
2018-10-06T18:59:54.094Z,45.33
2018-10-06T19:02:23.291Z,44.53
2018-10-06T19:04:53.168Z,45.53
2018-10-06T19:07:22.684Z,46.93
2018-10-06T19:09:51.915Z,47.30
2018-10-06T19:12:21.155Z,48.40
2018-10-06T19:14:50.614Z,47.23
2018-10-06T19:17:19.828Z,48.53
2018-10-06T19:19:49.079Z,50.50
2018-10-06T19:22:19.736Z,52.23
2018-10-06T19:24:49.475Z,49.27
2018-10-06T19:27:18.919Z,48.03
2018-10-06T19:29:48.353Z,46.23
2018-10-06T19:32:17.588Z,49.17
2018-10-06T19:34:46.943Z,50.07
2018-10-06T19:37:16.176Z,50.63
2018-10-06T19:39:45.496Z,53.60
2018-10-06T19:42:14.652Z,53.20
2018-10-06T19:44:43.963Z,52.50
2018-10-06T19:47:13.652Z,50.50
2018-10-06T19:49:43.048Z,51.37
2018-10-06T19:52:13.086Z,51.53
2018-10-06T19:54:42.678Z,53.87
2018-10-06T19:57:12.060Z,57.10
2018-10-06T19:59:41.600Z,58.10
2018-10-06T20:02:11.043Z,58.70
2018-10-06T20:04:41.368Z,53.20
2018-10-06T20:07:11.085Z,49.00
2018-10-06T20:09:40.336Z,37.40
2018-10-06T20:12:09.556Z,30.83
2018-10-06T20:14:38.764Z,27.30
2018-10-06T20:17:08.956Z,25.17
2018-10-06T20:19:38.178Z,23.47
2018-10-06T20:22:10.484Z,24.37
2018-10-06T20:24:40.687Z,23.03
2018-10-06T20:27:10.557Z,22.60
2018-10-06T20:29:40.229Z,20.20
2018-10-06T20:32:10.233Z,18.30
2018-10-06T20:34:39.592Z,16.83
2018-10-06T20:37:08.806Z,14.63
2018-10-06T20:39:38.040Z,14.23
2018-10-06T20:42:07.485Z,15.40
2018-10-06T20:44:36.723Z,15.37
2018-10-06T20:47:06.260Z,14.07
2018-10-06T20:49:35.713Z,14.67
2018-10-06T20:52:04.980Z,15.97
2018-10-06T20:54:34.290Z,13.43
2018-10-06T20:57:03.515Z,11.13
2018-10-06T20:59:33.480Z,9.40
2018-10-06T21:02:03.859Z,9.47
2018-10-06T21:04:33.049Z,9.27
2018-10-06T21:07:02.319Z,8.07
2018-10-06T21:09:31.542Z,8.53
2018-10-06T21:12:01.613Z,8.67
2018-10-06T21:14:30.872Z,9.53
2018-10-06T21:17:00.100Z,8.70
2018-10-06T21:19:29.351Z,8.20
2018-10-06T21:21:59.247Z,7.40
2018-10-06T21:24:28.589Z,5.60
2018-10-06T21:26:58.136Z,3.33
2018-10-06T21:29:27.652Z,3.33
2018-10-06T21:31:56.777Z,2.20
2018-10-06T21:34:26.042Z,2.63
2018-10-06T21:36:55.271Z,1.97
2018-10-06T21:39:25.859Z,1.90
2018-10-06T21:41:55.171Z,2.10
2018-10-06T21:44:25.296Z,2.00
2018-10-06T21:46:54.544Z,1.90
2018-10-06T21:49:24.470Z,1.60
2018-10-06T21:51:53.744Z,2.10
2018-10-06T21:54:23.687Z,1.70
2018-10-06T21:56:53.048Z,1.80
2018-10-06T21:59:22.570Z,1.80
2018-10-06T22:01:51.815Z,1.47
2018-10-06T22:04:21.264Z,1.97
2018-10-06T22:06:50.577Z,2.83
2018-10-06T22:09:19.780Z,1.53
2018-10-06T22:11:49.196Z,1.87
2018-10-06T22:14:18.419Z,1.50
2018-10-06T22:16:47.785Z,1.60
2018-10-06T22:19:17.287Z,1.43
2018-10-06T22:21:47.394Z,1.27
2018-10-06T22:24:16.800Z,1.30
2018-10-06T22:26:46.028Z,1.10
2018-10-06T22:29:15.549Z,1.57
2018-10-06T22:31:45.360Z,1.63
2018-10-06T22:34:14.613Z,1.50
2018-10-06T22:36:43.840Z,1.60
2018-10-06T22:39:13.071Z,1.50
2018-10-06T22:41:42.288Z,1.23
2018-10-06T22:44:11.488Z,0.77
2018-10-06T22:46:40.751Z,1.33
2018-10-06T22:49:10.689Z,1.30
2018-10-06T22:51:40.027Z,1.47
2018-10-06T22:54:09.399Z,1.43
2018-10-06T22:56:38.627Z,0.93
2018-10-06T22:59:07.822Z,1.40
2018-10-06T23:01:37.196Z,1.07
2018-10-06T23:04:06.492Z,1.00
2018-10-06T23:06:35.724Z,1.20
2018-10-06T23:09:07.787Z,0.90
2018-10-06T23:11:37.005Z,0.90
2018-10-06T23:14:06.769Z,0.97
2018-10-06T23:16:35.993Z,1.00
2018-10-06T23:19:05.556Z,1.10
2018-10-06T23:21:34.800Z,0.90
2018-10-06T23:24:04.913Z,0.93
2018-10-06T23:26:34.124Z,1.40
2018-10-06T23:29:03.360Z,1.47
2018-10-06T23:31:32.572Z,1.13
2018-10-06T23:34:01.840Z,1.40
2018-10-06T23:36:31.097Z,1.53
2018-10-06T23:39:00.319Z,0.83
2018-10-06T23:41:29.780Z,1.30
2018-10-06T23:43:59.149Z,0.90
2018-10-06T23:46:28.367Z,1.27
2018-10-06T23:48:58.260Z,1.13
2018-10-06T23:51:27.804Z,1.17
2018-10-06T23:53:57.059Z,1.03
2018-10-06T23:56:26.425Z,1.00
2018-10-06T23:58:55.655Z,1.40
